Time;durP1;ratioP1;P1;durP2;ratioP2;P2;SDS_P1;SDS_P2;PMS_P1;PMS_P2;Temp;Humidity;BMP_temperature;BMP_pressure;BME280_temperature;BME280_humidity;BME280_pressure;Samples;Min_cycle;Max_cycle;Signal;HPM_P1;HPM_P2
2022/07/09 00:00:21;;;;;;;6.00;4.60;;;13.10;99.40;;;;;;5071122;28;20466;-65
2022/07/09 00:02:48;;;;;;;7.23;4.30;;;13.20;99.40;;;;;;5071284;28;20922;-65
2022/07/09 00:05:17;;;;;;;7.23;4.23;;;13.20;99.60;;;;;;5070119;28;20432;-65
2022/07/09 00:07:44;;;;;;;13.13;3.97;;;13.20;99.60;;;;;;5070901;28;20444;-65
2022/07/09 00:10:11;;;;;;;6.70;4.50;;;13.20;99.60;;;;;;5069935;28;20446;-65
2022/07/09 00:12:39;;;;;;;6.30;4.67;;;13.10;99.50;;;;;;5071649;28;20440;-65
2022/07/09 00:15:09;;;;;;;4.27;3.50;;;13.00;99.80;;;;;;5071318;28;20501;-65
2022/07/09 00:17:36;;;;;;;6.60;3.40;;;13.00;99.90;;;;;;5072004;28;20531;-64
2022/07/09 00:20:04;;;;;;;6.80;3.17;;;13.00;99.90;;;;;;5071627;28;20464;-65
2022/07/09 00:22:32;;;;;;;5.20;3.30;;;13.10;99.90;;;;;;5071707;28;20447;-65
2022/07/09 00:24:59;;;;;;;4.10;2.97;;;13.10;99.90;;;;;;5071732;28;20476;-64
2022/07/09 00:27:29;;;;;;;8.63;3.73;;;13.10;99.80;;;;;;5071906;28;20518;-65
2022/07/09 00:29:56;;;;;;;5.23;4.33;;;13.10;99.80;;;;;;5071563;28;20533;-65
2022/07/09 00:32:25;;;;;;;6.00;4.43;;;13.00;99.80;;;;;;5072040;28;20942;-65
2022/07/09 00:34:52;;;;;;;5.90;3.90;;;13.00;99.90;;;;;;5071629;28;20444;-65
2022/07/09 00:37:19;;;;;;;5.63;4.00;;;13.00;99.90;;;;;;5071401;28;20446;-65
2022/07/09 00:39:46;;;;;;;6.10;3.60;;;13.00;99.90;;;;;;5070456;28;20438;-65
2022/07/09 00:42:29;;;;;;;7.67;4.00;;;12.90;99.70;;;;;;5069631;28;20440;-69
2022/07/09 00:44:58;;;;;;;5.67;3.90;;;13.00;99.80;;;;;;5070058;28;20463;-65
2022/07/09 00:47:28;;;;;;;8.07;3.73;;;13.00;99.80;;;;;;5070525;28;20432;-69
2022/07/09 00:49:55;;;;;;;4.80;4.13;;;13.00;99.80;;;;;;5070133;28;20833;-64
2022/07/09 00:52:39;;;;;;;4.40;3.80;;;12.90;99.80;;;;;;5069846;28;20451;-64
2022/07/09 00:55:07;;;;;;;6.33;4.17;;;12.90;99.60;;;;;;5070928;28;20493;-65
2022/07/09 00:57:35;;;;;;;6.90;4.30;;;12.90;99.80;;;;;;5070161;28;20440;-65
2022/07/09 01:00:07;;;;;;;6.53;4.20;;;12.80;99.90;;;;;;5069948;28;20436;-66
2022/07/09 01:02:36;;;;;;;4.70;3.43;;;12.80;99.90;;;;;;5069550;28;20431;-65
2022/07/09 01:05:06;;;;;;;4.73;3.90;;;12.80;99.90;;;;;;5070092;28;20801;-65
2022/07/09 01:07:33;;;;;;;6.03;4.33;;;12.80;99.90;;;;;;5069590;28;20439;-65
2022/07/09 01:10:00;;;;;;;9.00;4.33;;;12.80;99.90;;;;;;5069567;28;20522;-65
2022/07/09 01:12:27;;;;;;;8.10;4.67;;;12.80;99.90;;;;;;5069779;28;20448;-67
2022/07/09 01:15:10;;;;;;;6.13;4.13;;;12.90;99.90;;;;;;5050397;28;20441;-65
2022/07/09 01:17:42;;;;;;;6.70;4.80;;;12.90;99.90;;;;;;5064244;28;20930;-65
2022/07/09 01:20:10;;;;;;;5.50;4.57;;;12.90;99.90;;;;;;5069414;28;20923;-65
2022/07/09 01:22:40;;;;;;;7.73;5.00;;;12.80;99.90;;;;;;5069719;28;20438;-64
2022/07/09 01:25:09;;;;;;;7.23;5.67;;;12.80;99.90;;;;;;5069974;28;20469;-65
2022/07/09 01:27:37;;;;;;;7.03;5.73;;;12.80;99.80;;;;;;5071504;28;21056;-65
2022/07/09 01:30:07;;;;;;;8.57;5.90;;;12.70;99.50;;;;;;5073404;28;20484;-68
2022/07/09 01:32:58;;;;;;;6.65;5.13;;;12.70;99.60;;;;;;5073869;28;20497;-66
2022/07/09 01:35:26;;;;;;;5.57;4.70;;;12.60;99.70;;;;;;5074782;28;20269;-65
2022/07/09 01:37:55;;;;;;;7.50;5.55;;;12.50;99.90;;;;;;5073477;28;20522;-65
2022/07/09 01:40:26;;;;;;;8.63;4.72;;;12.50;99.90;;;;;;5073040;28;20190;-65
2022/07/09 01:42:54;;;;;;;10.60;5.70;;;12.50;99.90;;;;;;5073465;28;20223;-65
2022/07/09 01:45:21;;;;;;;7.57;5.50;;;12.50;99.90;;;;;;5072562;28;21008;-64
2022/07/09 01:47:48;;;;;;;6.30;4.03;;;12.50;99.90;;;;;;5073904;28;21115;-64
2022/07/09 01:50:15;;;;;;;5.80;4.40;;;12.40;99.90;;;;;;5074332;28;20224;-65
2022/07/09 01:52:43;;;;;;;5.47;4.10;;;12.40;99.90;;;;;;5074693;28;20796;-65
2022/07/09 01:55:11;;;;;;;6.10;4.05;;;12.40;99.90;;;;;;5074174;28;20189;-64
2022/07/09 01:57:38;;;;;;;7.80;4.07;;;12.40;99.90;;;;;;5074697;28;20282;-64
2022/07/09 02:00:07;;;;;;;6.90;4.50;;;12.30;99.90;;;;;;5074055;28;20462;-65
2022/07/09 02:02:34;;;;;;;4.87;3.50;;;12.30;99.90;;;;;;5074318;28;20432;-65
2022/07/09 02:05:01;;;;;;;5.72;4.25;;;12.30;99.90;;;;;;5074821;28;20872;-64
2022/07/09 02:07:29;;;;;;;6.68;5.00;;;12.20;99.90;;;;;;5074653;28;20190;-64
2022/07/09 02:09:56;;;;;;;6.80;4.18;;;12.20;99.90;;;;;;5073912;28;20218;-64
2022/07/09 02:12:24;;;;;;;5.25;3.85;;;12.20;99.90;;;;;;5074130;28;20280;-65
2022/07/09 02:14:51;;;;;;;4.82;3.55;;;12.10;99.90;;;;;;5074556;28;20193;-64
2022/07/09 02:17:18;;;;;;;6.30;4.07;;;12.10;99.90;;;;;;5073760;28;20225;-64
2022/07/09 02:19:45;;;;;;;6.07;4.07;;;12.10;99.90;;;;;;5074363;28;20663;-65
2022/07/09 02:22:12;;;;;;;4.85;3.50;;;12.20;99.90;;;;;;5073845;28;20464;-64
2022/07/09 02:24:39;;;;;;;3.72;3.13;;;12.30;99.90;;;;;;5074323;28;20213;-65
2022/07/09 02:27:10;;;;;;;7.57;4.00;;;12.20;99.90;;;;;;5072369;28;20213;-66
2022/07/09 02:29:38;;;;;;;11.23;6.80;;;12.30;99.90;;;;;;5072511;28;20552;-65
2022/07/09 02:32:33;;;;;;;17.55;8.40;;;12.30;99.90;;;;;;5070874;28;20440;-65
2022/07/09 02:35:00;;;;;;;10.88;6.38;;;12.30;99.90;;;;;;5073890;28;20255;-65
2022/07/09 02:37:27;;;;;;;5.97;4.53;;;12.30;99.90;;;;;;5072769;28;20197;-64
2022/07/09 02:39:54;;;;;;;5.18;4.03;;;12.40;99.90;;;;;;5073725;28;20198;-70
2022/07/09 02:42:21;;;;;;;7.05;3.40;;;12.40;99.90;;;;;;5073214;28;20198;-65
2022/07/09 02:44:50;;;;;;;6.10;3.08;;;12.40;99.90;;;;;;5073199;28;20198;-64
2022/07/09 02:47:17;;;;;;;6.50;3.70;;;12.50;99.90;;;;;;5073142;28;20648;-65
2022/07/09 02:49:45;;;;;;;3.92;3.42;;;12.50;99.90;;;;;;5072622;28;20221;-65
2022/07/09 02:52:12;;;;;;;5.63;2.97;;;12.60;99.90;;;;;;5073067;28;20189;-64
2022/07/09 02:54:39;;;;;;;6.23;3.97;;;12.60;99.90;;;;;;5073138;28;20652;-65
2022/07/09 02:57:08;;;;;;;7.63;3.47;;;12.50;99.90;;;;;;5073801;28;20444;-65
2022/07/09 02:59:35;;;;;;;5.27;2.87;;;12.50;99.90;;;;;;5073820;28;20190;-65
2022/07/09 03:02:03;;;;;;;5.15;3.80;;;12.40;99.90;;;;;;5072882;28;20474;-65
2022/07/09 03:04:31;;;;;;;5.87;4.03;;;12.40;99.90;;;;;;5073665;28;20190;-64
2022/07/09 03:06:58;;;;;;;5.35;3.42;;;12.50;99.90;;;;;;5072831;28;20444;-64
2022/07/09 03:09:25;;;;;;;6.55;5.35;;;12.50;99.90;;;;;;5073179;28;20569;-64
2022/07/09 03:11:52;;;;;;;9.83;4.40;;;12.40;99.90;;;;;;5072698;28;20751;-64
2022/07/09 03:14:19;;;;;;;5.90;4.65;;;12.40;99.90;;;;;;5072964;28;20451;-64
2022/07/09 03:16:46;;;;;;;7.03;5.15;;;12.50;99.90;;;;;;5072132;28;20560;-65
2022/07/09 03:19:15;;;;;;;4.80;3.63;;;12.50;99.90;;;;;;5072796;28;20186;-64
2022/07/09 03:21:43;;;;;;;4.82;3.65;;;12.50;99.90;;;;;;5072112;28;20444;-64
2022/07/09 03:24:10;;;;;;;8.13;4.87;;;12.50;99.90;;;;;;5072772;28;20652;-64
2022/07/09 03:26:37;;;;;;;6.27;3.63;;;12.60;99.90;;;;;;5071797;28;20436;-65
2022/07/09 03:29:04;;;;;;;6.33;3.77;;;12.60;99.90;;;;;;5072858;28;20475;-69
2022/07/09 03:31:31;;;;;;;4.90;2.53;;;12.70;99.90;;;;;;5072663;28;20478;-65
2022/07/09 03:33:59;;;;;;;4.57;3.13;;;12.70;99.90;;;;;;5072539;28;20443;-65
2022/07/09 03:36:27;;;;;;;3.40;2.77;;;12.70;99.90;;;;;;5072005;28;20474;-65
2022/07/09 03:38:54;;;;;;;4.97;2.93;;;12.60;99.90;;;;;;5072273;28;20432;-64
2022/07/09 03:41:21;;;;;;;5.03;3.22;;;12.50;99.90;;;;;;5071767;28;20436;-65
2022/07/09 03:43:48;;;;;;;7.23;3.83;;;12.50;99.90;;;;;;5072570;28;20201;-64
2022/07/09 03:46:16;;;;;;;6.75;3.50;;;12.60;99.90;;;;;;5071852;28;20444;-65
2022/07/09 03:48:43;;;;;;;4.27;3.30;;;12.60;99.90;;;;;;5072180;28;20186;-64
2022/07/09 03:51:10;;;;;;;5.30;3.77;;;12.70;99.90;;;;;;5071200;28;20547;-64
2022/07/09 03:53:38;;;;;;;8.07;4.47;;;12.80;99.90;;;;;;5072250;28;20517;-64
2022/07/09 03:56:07;;;;;;;7.07;3.80;;;12.80;99.90;;;;;;5071436;28;20228;-65
2022/07/09 03:58:34;;;;;;;4.57;2.83;;;12.90;99.90;;;;;;5071717;28;20460;-64
2022/07/09 04:01:01;;;;;;;4.93;2.80;;;12.90;99.90;;;;;;5071030;28;20472;-65
2022/07/09 04:03:28;;;;;;;4.33;3.33;;;12.90;99.90;;;;;;5071649;28;20476;-64
2022/07/09 04:05:55;;;;;;;5.17;3.20;;;13.00;99.90;;;;;;5070587;28;20926;-65
2022/07/09 04:08:22;;;;;;;5.00;3.97;;;13.00;99.90;;;;;;5072007;28;20451;-65
2022/07/09 04:10:50;;;;;;;7.47;3.60;;;13.10;99.90;;;;;;5070722;28;20798;-64
2022/07/09 04:13:17;;;;;;;8.60;3.23;;;13.10;99.90;;;;;;5070871;28;20444;-65
2022/07/09 04:15:45;;;;;;;9.33;3.30;;;13.10;99.90;;;;;;5070897;28;20446;-65
2022/07/09 04:18:13;;;;;;;4.17;2.90;;;13.10;99.90;;;;;;5071285;28;20498;-64
2022/07/09 04:20:41;;;;;;;4.33;3.60;;;13.10;99.90;;;;;;5069994;28;20440;-64
2022/07/09 04:23:09;;;;;;;5.50;3.63;;;13.10;99.90;;;;;;5070952;28;20517;-64
2022/07/09 04:25:36;;;;;;;5.90;3.90;;;13.20;99.90;;;;;;5071394;28;20444;-65
2022/07/09 04:28:06;;;;;;;5.73;3.10;;;13.30;99.90;;;;;;5071592;28;20517;-65
2022/07/09 04:30:33;;;;;;;3.63;2.77;;;13.30;99.90;;;;;;5070632;28;20476;-64
2022/07/09 04:33:03;;;;;;;5.27;2.80;;;13.40;99.90;;;;;;5070845;28;20444;-66
2022/07/09 04:35:30;;;;;;;4.20;2.37;;;13.40;99.90;;;;;;5072150;28;20791;-64
2022/07/09 04:37:57;;;;;;;3.37;2.53;;;13.30;99.90;;;;;;5072252;28;20444;-64
2022/07/09 04:40:25;;;;;;;3.87;3.10;;;13.30;99.90;;;;;;5071156;28;20519;-64
2022/07/09 04:42:52;;;;;;;8.20;3.60;;;13.30;99.90;;;;;;5070863;28;20436;-65
2022/07/09 04:45:20;;;;;;;4.47;3.10;;;13.30;99.90;;;;;;5072031;28;20444;-65
2022/07/09 04:47:47;;;;;;;5.80;3.17;;;13.30;99.90;;;;;;5070932;28;20440;-65
2022/07/09 04:50:15;;;;;;;5.43;3.20;;;13.40;99.90;;;;;;5071262;28;20882;-64
2022/07/09 04:52:42;;;;;;;5.30;3.93;;;13.60;99.90;;;;;;5071729;28;20471;-65
2022/07/09 04:55:10;;;;;;;4.40;3.57;;;13.70;99.90;;;;;;5072005;28;20471;-65
2022/07/09 04:57:37;;;;;;;7.43;3.67;;;13.70;99.90;;;;;;5056706;28;20946;-66
2022/07/09 05:00:06;;;;;;;6.63;3.20;;;13.80;99.90;;;;;;5071646;28;20432;-65
2022/07/09 05:02:34;;;;;;;6.40;3.80;;;13.90;99.90;;;;;;5075444;28;20433;-65
2022/07/09 05:05:03;;;;;;;6.43;3.57;;;14.00;99.90;;;;;;5076025;28;20513;-65
2022/07/09 05:07:30;;;;;;;5.70;3.97;;;14.10;99.90;;;;;;5075395;28;20443;-65
2022/07/09 05:09:58;;;;;;;3.60;2.70;;;14.10;99.90;;;;;;5075452;28;20487;-64
2022/07/09 05:12:25;;;;;;;4.83;3.13;;;14.20;99.90;;;;;;5075401;28;20459;-71
2022/07/09 05:14:52;;;;;;;4.50;3.67;;;14.30;99.90;;;;;;5075636;28;20436;-65
2022/07/09 05:17:19;;;;;;;6.70;3.97;;;14.30;99.90;;;;;;5075627;28;20953;-65
2022/07/09 05:19:48;;;;;;;6.43;3.80;;;14.40;99.90;;;;;;5074953;28;20451;-65
2022/07/09 05:22:15;;;;;;;3.97;2.80;;;14.50;99.90;;;;;;5075442;28;20918;-64
2022/07/09 05:24:42;;;;;;;4.30;3.80;;;14.60;99.90;;;;;;5075335;28;20436;-65
2022/07/09 05:27:10;;;;;;;3.70;3.10;;;14.80;99.90;;;;;;5075412;28;20459;-65
2022/07/09 05:29:37;;;;;;;3.83;3.00;;;14.90;99.90;;;;;;5074817;28;20503;-65
2022/07/09 05:32:05;;;;;;;4.70;3.37;;;15.10;99.90;;;;;;5075312;28;20935;-66
2022/07/09 05:34:32;;;;;;;3.20;2.50;;;15.30;99.90;;;;;;5073189;28;20987;-65
2022/07/09 05:37:01;;;;;;;6.10;3.70;;;15.40;99.90;;;;;;5074181;28;20462;-65
2022/07/09 05:39:28;;;;;;;4.30;2.53;;;15.70;99.90;;;;;;5073949;28;20436;-65
2022/07/09 05:41:55;;;;;;;4.47;3.00;;;15.80;99.90;;;;;;5073996;28;20431;-66
2022/07/09 05:44:22;;;;;;;8.43;4.07;;;15.90;99.90;;;;;;5074682;28;20462;-68
2022/07/09 05:46:49;;;;;;;6.47;3.27;;;15.90;99.90;;;;;;5074659;28;20436;-65
2022/07/09 05:49:16;;;;;;;5.97;3.30;;;16.10;99.90;;;;;;5074779;28;20435;-66
2022/07/09 05:51:43;;;;;;;6.20;2.90;;;16.20;99.90;;;;;;5074638;28;21035;-65
2022/07/09 05:54:12;;;;;;;4.40;2.83;;;16.40;99.90;;;;;;5074959;28;20439;-65
2022/07/09 05:56:40;;;;;;;4.10;2.87;;;16.40;99.70;;;;;;5074668;28;20444;-65
2022/07/09 05:59:08;;;;;;;3.90;3.00;;;16.50;99.90;;;;;;5074656;28;20927;-65
2022/07/09 06:01:39;;;;;;;3.77;2.50;;;16.50;99.90;;;;;;5075169;28;20440;-65
2022/07/09 06:04:08;;;;;;;4.70;3.20;;;16.60;99.90;;;;;;5074565;28;20428;-65
2022/07/09 06:06:35;;;;;;;5.27;3.10;;;16.70;99.90;;;;;;5074795;28;20822;-65
2022/07/09 06:09:03;;;;;;;5.83;3.00;;;16.80;99.90;;;;;;5075108;28;20432;-65
2022/07/09 06:11:32;;;;;;;5.60;2.40;;;17.00;99.90;;;;;;5070420;28;20471;-68
2022/07/09 06:14:01;;;;;;;3.70;3.27;;;17.20;99.90;;;;;;5072155;28;20432;-66
2022/07/09 06:16:30;;;;;;;4.30;2.53;;;17.30;99.60;;;;;;5072202;28;20501;-65
2022/07/09 06:18:57;;;;;;;5.20;3.67;;;17.50;99.70;;;;;;5072933;28;20432;-65
2022/07/09 06:21:24;;;;;;;9.13;3.33;;;17.70;99.30;;;;;;5072343;28;20448;-65
2022/07/09 06:23:51;;;;;;;3.00;2.20;;;17.90;94.80;;;;;;5072970;28;20444;-65
2022/07/09 06:26:18;;;;;;;5.73;2.80;;;18.10;85.80;;;;;;5072054;28;20837;-66
2022/07/09 06:28:47;;;;;;;8.60;3.43;;;18.30;84.10;;;;;;5072375;28;20521;-65
2022/07/09 06:31:14;;;;;;;3.63;2.47;;;18.60;87.50;;;;;;5072458;28;20879;-66
2022/07/09 06:33:41;;;;;;;5.10;2.90;;;18.70;82.40;;;;;;5072585;28;20436;-67
2022/07/09 06:36:08;;;;;;;3.50;2.50;;;18.70;81.10;;;;;;5068420;28;20435;-66
2022/07/09 06:39:44;;;;;;;4.40;2.40;;;18.70;77.90;;;;;;5072843;28;20444;-65
2022/07/09 06:41:24;;;;;;;3.73;2.37;;;18.70;78.30;;;;;;5071996;28;20807;-65
2022/07/09 06:43:52;;;;;;;6.00;3.03;;;18.70;78.60;;;;;;5072881;28;20436;-65
2022/07/09 06:46:20;;;;;;;6.47;3.20;;;18.80;81.30;;;;;;5072080;28;20436;-68
2022/07/09 06:48:47;;;;;;;7.40;2.77;;;18.80;78.30;;;;;;5071345;28;20433;-65
2022/07/09 06:51:14;;;;;;;3.73;2.33;;;18.90;77.90;;;;;;5071981;28;20571;-66
2022/07/09 06:53:41;;;;;;;4.77;2.07;;;19.00;79.80;;;;;;5071973;28;20436;-65
2022/07/09 06:56:08;;;;;;;4.93;3.07;;;19.20;93.00;;;;;;5071602;28;20523;-66
2022/07/09 06:58:35;;;;;;;7.73;2.57;;;19.30;93.90;;;;;;5069842;28;20519;-65
2022/07/09 07:01:04;;;;;;;5.33;2.47;;;19.50;93.70;;;;;;5072157;28;20497;-67
2022/07/09 07:03:32;;;;;;;6.40;2.20;;;19.60;92.40;;;;;;5072359;28;20787;-65
2022/07/09 07:05:59;;;;;;;3.77;1.97;;;19.70;76.30;;;;;;5071996;28;20443;-66
2022/07/09 07:08:26;;;;;;;4.00;2.50;;;19.70;74.30;;;;;;5071226;28;20436;-65
2022/07/09 07:10:53;;;;;;;5.10;2.07;;;19.60;71.80;;;;;;5071764;28;20480;-65
2022/07/09 07:13:20;;;;;;;3.10;2.20;;;19.60;73.80;;;;;;5072037;28;20440;-65
2022/07/09 07:15:49;;;;;;;6.17;2.50;;;19.50;74.50;;;;;;5071022;28;20440;-65
2022/07/09 07:18:17;;;;;;;5.27;2.10;;;19.50;75.40;;;;;;5071223;28;20443;-65
2022/07/09 07:20:45;;;;;;;2.87;2.20;;;19.40;75.10;;;;;;5071202;28;20443;-65
2022/07/09 07:23:12;;;;;;;6.00;2.30;;;19.40;75.70;;;;;;5071459;28;20448;-66
2022/07/09 07:25:38;;;;;;;4.83;2.57;;;19.40;76.30;;;;;;5071831;28;20527;-65
2022/07/09 07:28:05;;;;;;;6.77;2.13;;;19.40;74.30;;;;;;5071619;28;20499;-67
2022/07/09 07:30:33;;;;;;;6.23;2.20;;;19.40;76.30;;;;;;5072301;28;20479;-66
2022/07/09 07:33:01;;;;;;;4.37;2.37;;;19.50;77.50;;;;;;5071793;28;20953;-66
2022/07/09 07:35:29;;;;;;;5.43;2.50;;;19.60;76.60;;;;;;5072281;28;20993;-67
2022/07/09 07:37:56;;;;;;;4.20;1.90;;;19.60;74.00;;;;;;5072555;28;20471;-65
2022/07/09 07:40:24;;;;;;;5.10;2.10;;;19.60;72.80;;;;;;5072087;28;20545;-65
2022/07/09 07:42:51;;;;;;;4.80;2.63;;;19.70;70.20;;;;;;5071643;28;20494;-65
2022/07/09 07:45:18;;;;;;;7.03;2.00;;;19.80;71.60;;;;;;5072346;28;20530;-65
2022/07/09 07:47:44;;;;;;;3.07;2.13;;;19.90;73.30;;;;;;5072025;28;21850;-65
2022/07/09 07:50:11;;;;;;;3.43;2.30;;;20.00;73.70;;;;;;5071545;28;20512;-65
2022/07/09 07:52:40;;;;;;;6.03;2.20;;;20.20;74.40;;;;;;5071677;28;20440;-66
2022/07/09 07:55:07;;;;;;;5.20;1.50;;;20.30;73.90;;;;;;5072184;28;20866;-65
2022/07/09 07:57:34;;;;;;;2.70;1.30;;;20.50;73.70;;;;;;5071684;28;20494;-65
2022/07/09 08:00:02;;;;;;;3.70;1.43;;;20.70;71.70;;;;;;5071947;28;20535;-65
2022/07/09 08:02:29;;;;;;;5.90;1.70;;;20.80;69.60;;;;;;5071615;28;20490;-66
2022/07/09 08:04:56;;;;;;;4.37;2.10;;;20.90;68.60;;;;;;5071708;28;20436;-65
2022/07/09 08:07:22;;;;;;;7.73;1.90;;;21.00;68.20;;;;;;5071777;28;20946;-65
2022/07/09 08:09:51;;;;;;;6.60;1.70;;;21.10;67.30;;;;;;5071320;28;20536;-67
2022/07/09 08:12:18;;;;;;;5.50;1.73;;;21.30;67.80;;;;;;5071241;28;20494;-65
2022/07/09 08:14:45;;;;;;;3.40;1.80;;;21.40;66.50;;;;;;5069233;28;20519;-65
2022/07/09 08:17:12;;;;;;;3.93;1.67;;;21.40;59.60;;;;;;5071132;28;20446;-65
2022/07/09 08:19:39;;;;;;;3.30;1.43;;;21.40;58.80;;;;;;5070425;28;20463;-67
2022/07/09 08:22:07;;;;;;;4.70;1.90;;;21.40;59.10;;;;;;5066701;28;20441;-65
2022/07/09 08:24:34;;;;;;;5.63;1.70;;;21.50;59.10;;;;;;5070727;28;20550;-65
2022/07/09 08:27:03;;;;;;;3.57;1.60;;;21.50;59.40;;;;;;5070752;28;20620;-67
2022/07/09 08:29:33;;;;;;;3.63;1.47;;;21.70;58.60;;;;;;5070278;28;20441;-65
2022/07/09 08:32:00;;;;;;;5.03;1.30;;;21.90;58.60;;;;;;5070944;28;20666;-65
2022/07/09 08:34:30;;;;;;;14.13;3.23;;;21.90;56.40;;;;;;5070658;28;20452;-65
2022/07/09 08:36:58;;;;;;;2.83;1.63;;;21.90;57.40;;;;;;5070096;28;20488;-66
2022/07/09 08:39:25;;;;;;;7.30;1.50;;;22.10;59.10;;;;;;5070629;28;20856;-65
2022/07/09 08:41:53;;;;;;;3.00;1.50;;;22.20;57.60;;;;;;5070933;28;20441;-65
2022/07/09 08:44:25;;;;;;;3.77;1.63;;;22.30;56.20;;;;;;5070234;28;20444;-65
2022/07/09 08:46:52;;;;;;;7.27;1.83;;;22.40;55.10;;;;;;5068148;28;20441;-65
2022/07/09 08:49:19;;;;;;;8.13;1.77;;;22.40;54.60;;;;;;5070680;28;20439;-65
2022/07/09 08:51:48;;;;;;;3.33;1.50;;;22.60;53.20;;;;;;5070140;28;20519;-65
2022/07/09 08:54:17;;;;;;;3.23;1.23;;;22.70;54.00;;;;;;5070457;28;20503;-66
2022/07/09 08:56:44;;;;;;;4.63;1.40;;;22.70;55.10;;;;;;5070531;28;20451;-65
2022/07/09 08:59:11;;;;;;;4.20;1.30;;;22.90;54.80;;;;;;5068651;28;20498;-66
2022/07/09 09:01:39;;;;;;;4.80;1.77;;;23.00;55.20;;;;;;5067074;28;20541;-65
2022/07/09 09:04:08;;;;;;;5.07;1.50;;;23.20;54.50;;;;;;5068382;28;20528;-65
2022/07/09 09:06:39;;;;;;;4.83;1.37;;;23.30;54.30;;;;;;5072028;28;20927;-66
2022/07/09 09:09:10;;;;;;;6.50;1.87;;;23.40;54.40;;;;;;5071219;28;20450;-66
2022/07/09 09:11:39;;;;;;;8.90;2.33;;;23.60;54.40;;;;;;5069603;28;20529;-66
2022/07/09 09:14:06;;;;;;;5.43;1.87;;;23.80;53.10;;;;;;5069626;28;20455;-65
2022/07/09 09:16:44;;;;;;;5.13;1.30;;;23.80;51.00;;;;;;5069789;28;20448;-66
2022/07/09 09:19:11;;;;;;;8.80;1.63;;;23.80;51.70;;;;;;5069417;28;20995;-65
2022/07/09 09:21:38;;;;;;;4.13;1.73;;;24.00;52.40;;;;;;5071504;28;20581;-65
2022/07/09 09:24:06;;;;;;;2.87;1.63;;;24.10;51.90;;;;;;5067884;28;21017;-65
2022/07/09 09:26:35;;;;;;;2.30;1.30;;;24.20;53.30;;;;;;5071151;28;20519;-66
2022/07/09 09:29:03;;;;;;;4.63;1.70;;;24.40;70.40;;;;;;5070172;28;20450;-66
2022/07/09 09:31:32;;;;;;;3.07;1.17;;;24.60;68.30;;;;;;5068686;28;20578;-66
2022/07/09 09:34:15;;;;;;;5.33;1.80;;;24.60;66.40;;;;;;5069634;28;20459;-67
2022/07/09 09:36:43;;;;;;;4.60;1.73;;;24.70;52.70;;;;;;5070659;28;20458;-65
2022/07/09 09:39:12;;;;;;;2.90;1.40;;;24.70;52.00;;;;;;5069671;28;20444;-67
2022/07/09 09:41:40;;;;;;;3.80;1.53;;;24.70;50.80;;;;;;5069029;28;20487;-65
2022/07/09 09:44:10;;;;;;;3.93;1.60;;;24.70;51.10;;;;;;5070524;28;20535;-66
2022/07/09 09:46:38;;;;;;;4.80;1.53;;;24.80;51.50;;;;;;5069502;28;20805;-66
2022/07/09 09:49:08;;;;;;;3.13;1.07;;;24.90;51.30;;;;;;5068816;28;20428;-65
2022/07/09 09:51:37;;;;;;;4.47;1.77;;;25.00;51.30;;;;;;5073364;28;20582;-65
2022/07/09 09:54:05;;;;;;;3.93;1.60;;;25.10;51.50;;;;;;5072954;28;21168;-65
2022/07/09 09:56:33;;;;;;;5.17;1.50;;;25.30;52.10;;;;;;5076733;28;20466;-66
2022/07/09 09:59:01;;;;;;;4.00;1.73;;;25.30;51.20;;;;;;5073980;28;20758;-65
2022/07/09 10:01:29;;;;;;;5.13;1.60;;;25.40;50.90;;;;;;5072867;28;20452;-66
2022/07/09 10:03:57;;;;;;;3.20;1.60;;;25.50;50.80;;;;;;5072983;28;20460;-66
2022/07/09 10:06:26;;;;;;;2.90;1.40;;;25.60;49.20;;;;;;5073846;28;20529;-65
2022/07/09 10:08:54;;;;;;;3.20;1.10;;;25.80;49.80;;;;;;5073771;28;20533;-65
2022/07/09 10:11:21;;;;;;;4.17;1.60;;;25.90;48.90;;;;;;5073300;28;20850;-65
2022/07/09 10:13:53;;;;;;;3.60;1.20;;;26.00;47.90;;;;;;5073225;28;20539;-65
2022/07/09 10:16:32;;;;;;;2.80;1.17;;;26.00;43.60;;;;;;5073471;28;20495;-65
2022/07/09 10:18:59;;;;;;;3.20;1.27;;;26.00;45.60;;;;;;5072776;28;20487;-65
2022/07/09 10:21:36;;;;;;;2.70;1.23;;;25.90;42.80;;;;;;5071619;28;20517;-65
2022/07/09 10:24:04;;;;;;;4.13;1.77;;;25.90;41.90;;;;;;5073289;28;20439;-67
2022/07/09 10:26:44;;;;;;;3.93;1.23;;;25.90;44.60;;;;;;5066125;28;20444;-65
2022/07/09 10:29:26;;;;;;;4.30;1.27;;;25.90;40.60;;;;;;5072818;28;20518;-65
2022/07/09 10:31:54;;;;;;;2.37;1.00;;;26.00;45.50;;;;;;5071020;28;20487;-65
2022/07/09 10:34:40;;;;;;;3.47;1.20;;;26.20;53.90;;;;;;5072527;28;20452;-65
2022/07/09 10:37:08;;;;;;;5.73;1.40;;;26.40;54.80;;;;;;5072083;28;20460;-65
2022/07/09 10:39:36;;;;;;;3.63;1.40;;;26.50;50.80;;;;;;5072501;28;20436;-65
2022/07/09 10:42:04;;;;;;;2.20;1.00;;;26.60;51.60;;;;;;5071738;28;20447;-65
2022/07/09 10:44:36;;;;;;;4.43;1.90;;;26.70;50.90;;;;;;5072726;28;20448;-66
2022/07/09 10:47:05;;;;;;;2.57;1.50;;;26.80;46.50;;;;;;5071729;28;20471;-65
2022/07/09 10:49:34;;;;;;;5.57;1.40;;;26.90;46.70;;;;;;5071877;28;20473;-65
2022/07/09 10:52:02;;;;;;;2.70;1.63;;;27.10;44.90;;;;;;5071181;28;21009;-66
2022/07/09 10:54:30;;;;;;;3.27;1.50;;;27.40;52.40;;;;;;5072541;28;20436;-67
2022/07/09 10:56:58;;;;;;;4.13;1.40;;;27.60;55.10;;;;;;5071639;28;20523;-67
2022/07/09 10:59:26;;;;;;;2.63;1.20;;;27.70;57.50;;;;;;5071901;28;20462;-66
2022/07/09 11:01:55;;;;;;;5.60;1.43;;;27.90;55.00;;;;;;5070073;28;20452;-65
2022/07/09 11:04:29;;;;;;;2.40;1.10;;;27.90;55.30;;;;;;5073090;28;20448;-66
2022/07/09 11:06:57;;;;;;;6.07;1.83;;;27.90;56.00;;;;;;5068128;28;20443;-65
2022/07/09 11:09:30;;;;;;;2.90;1.20;;;28.00;56.00;;;;;;5072096;28;20448;-66
2022/07/09 11:12:02;;;;;;;6.40;1.53;;;27.80;52.50;;;;;;5070828;28;20552;-66
2022/07/09 11:14:30;;;;;;;3.97;1.30;;;27.80;52.50;;;;;;5072634;28;20448;-66
2022/07/09 11:16:58;;;;;;;3.63;1.50;;;27.70;53.60;;;;;;5073765;28;20435;-66
2022/07/09 11:19:26;;;;;;;5.80;1.00;;;27.70;55.10;;;;;;5070303;28;20506;-66
2022/07/09 11:22:05;;;;;;;4.00;1.20;;;27.70;54.30;;;;;;5070815;28;20448;-65
2022/07/09 11:24:32;;;;;;;4.40;1.43;;;27.60;53.20;;;;;;5069303;28;20491;-66
2022/07/09 11:27:04;;;;;;;4.10;1.73;;;27.60;54.10;;;;;;5073021;28;20471;-66
2022/07/09 11:29:32;;;;;;;2.53;1.10;;;27.70;53.70;;;;;;5069543;28;20487;-66
2022/07/09 11:32:01;;;;;;;3.20;1.07;;;27.80;53.70;;;;;;5071835;28;20483;-66
2022/07/09 11:34:29;;;;;;;2.07;0.80;;;27.90;52.80;;;;;;5068058;28;20493;-66
2022/07/09 11:36:57;;;;;;;2.70;1.00;;;27.80;49.10;;;;;;5073414;28;20444;-65
2022/07/09 11:39:26;;;;;;;4.60;1.10;;;27.80;49.90;;;;;;5069892;28;20962;-65
2022/07/09 11:41:54;;;;;;;2.70;0.80;;;27.70;50.00;;;;;;5069565;28;20459;-66
2022/07/09 11:44:24;;;;;;;4.30;1.10;;;27.60;49.40;;;;;;5071756;28;20490;-65
2022/07/09 11:47:21;;;;;;;2.70;1.10;;;27.70;50.50;;;;;;5071381;28;20836;-66
2022/07/09 11:49:50;;;;;;;2.10;0.80;;;27.70;49.20;;;;;;5054469;28;20535;-66
2022/07/09 11:52:19;;;;;;;3.03;1.00;;;27.60;48.20;;;;;;5069348;28;20487;-66
2022/07/09 11:54:59;;;;;;;3.40;1.00;;;27.50;49.20;;;;;;5067196;28;20531;-65
2022/07/09 11:57:27;;;;;;;2.53;1.10;;;27.70;50.60;;;;;;5070893;28;20435;-65
2022/07/09 11:59:56;;;;;;;4.47;1.13;;;27.90;50.70;;;;;;5071532;28;20440;-67
2022/07/09 12:02:25;;;;;;;3.23;0.90;;;27.90;51.50;;;;;;5070935;28;20432;-65
2022/07/09 12:04:53;;;;;;;3.37;1.00;;;27.90;49.10;;;;;;5071065;28;20437;-67
2022/07/09 12:07:20;;;;;;;2.10;1.10;;;28.00;51.50;;;;;;5070447;28;20518;-66
2022/07/09 12:09:46;;;;;;;3.40;1.47;;;28.00;48.00;;;;;;5071416;28;20440;-65
2022/07/09 12:12:13;;;;;;;2.40;0.80;;;28.10;50.50;;;;;;5070249;28;20471;-66
2022/07/09 12:14:40;;;;;;;2.30;1.00;;;28.10;49.40;;;;;;5070502;28;20437;-67
2022/07/09 12:17:19;;;;;;;1.80;0.77;;;27.90;46.10;;;;;;5070811;28;20440;-65
2022/07/09 12:19:46;;;;;;;2.60;0.80;;;27.70;49.00;;;;;;5070429;28;20485;-65
2022/07/09 12:22:13;;;;;;;2.40;0.93;;;27.60;48.70;;;;;;5069960;28;20806;-66
2022/07/09 12:24:40;;;;;;;2.20;0.90;;;27.50;48.60;;;;;;5071391;28;20440;-65
2022/07/09 12:27:08;;;;;;;1.60;0.60;;;27.30;47.60;;;;;;5069181;28;20467;-66
2022/07/09 12:29:36;;;;;;;2.80;1.33;;;27.10;46.40;;;;;;5069330;28;20814;-67
2022/07/09 12:32:03;;;;;;;1.90;0.90;;;27.00;46.30;;;;;;5071917;28;20993;-66
2022/07/09 12:34:32;;;;;;;2.70;1.13;;;26.90;50.30;;;;;;5069830;28;20456;-66
2022/07/09 12:36:59;;;;;;;3.50;0.80;;;26.90;49.30;;;;;;5070111;28;20452;-66
2022/07/09 12:39:26;;;;;;;2.10;1.00;;;26.90;48.90;;;;;;5071281;28;20438;-65
2022/07/09 12:41:53;;;;;;;2.20;0.97;;;26.90;47.90;;;;;;5069608;28;20460;-65
2022/07/09 12:44:20;;;;;;;3.30;0.97;;;26.70;46.70;;;;;;5066154;28;20455;-65
2022/07/09 12:46:47;;;;;;;2.90;1.00;;;26.70;48.60;;;;;;5071361;28;20619;-66
2022/07/09 12:49:14;;;;;;;2.70;1.17;;;26.70;49.10;;;;;;5069955;28;20536;-67
2022/07/09 12:51:42;;;;;;;2.43;0.80;;;26.70;49.40;;;;;;5070405;28;20452;-65